If you wish to contribute or participate in the discussions about articles you are invited to join SKYbrary as a registered user

 Actions

Taraz Airport

From SKYbrary Wiki

UADD
Airport
ICAO: UADD – IATA: DMB
Summary
Name Taraz Airport
Region Asia and Pacific
Territory Kazakhstan KZ.gif
Location Taraz, Jambyl Province
Serving Taraz
Elevation 665.683 m
2,184 ft
2,184 ft665.683 m
Coordinates 42° 51' 13.00" N, 71° 18' 13.00" E
Runways
Designator Length Width Surface ROPS
13/31 2900 m9,514.436 ft
45 m147.638 ft
ASP /


METAR
Observation UADD 211400Z 00000MPS 9999 NSC 24/05 Q1010 R13/0///65 NOSIG RMK QFE701/0935
Station TARAZ
Date/Time 21 September 2019 14:00:00
Wind direction
Wind speed kts
Lowest cloud amount n/a
Temperature 24°C
Dew point 5°C
Humidity 29%
QNH 1010 hPa
Weather condition n/a

Description

Taraz Airport, also known as Jambyl Airport is an airport serving Taraz (formerly Jambyl and Aulie-Ata), a city in the Jambyl Province of Kazakhstan.